sensor_id;sensor_type;location;lat;lon;timestamp;P1;durP1;ratioP1;P2;durP2;ratioP2
54261;SDS011;40174;52.364;6.452;2022-10-13T00:00:37;16.65;;;5.88;;
54261;SDS011;40174;52.364;6.452;2022-10-13T00:03:04;15.60;;;6.80;;
54261;SDS011;40174;52.364;6.452;2022-10-13T00:05:30;11.95;;;5.40;;
54261;SDS011;40174;52.364;6.452;2022-10-13T00:07:57;14.48;;;6.03;;
54261;SDS011;40174;52.364;6.452;2022-10-13T00:10:26;16.88;;;6.03;;
54261;SDS011;40174;52.364;6.452;2022-10-13T00:12:52;14.90;;;6.22;;
54261;SDS011;40174;52.364;6.452;2022-10-13T00:15:20;16.73;;;6.90;;
54261;SDS011;40174;52.364;6.452;2022-10-13T00:17:50;15.40;;;6.22;;
54261;SDS011;40174;52.364;6.452;2022-10-13T00:20:17;18.95;;;6.90;;
54261;SDS011;40174;52.364;6.452;2022-10-13T00:22:43;19.58;;;6.85;;
54261;SDS011;40174;52.364;6.452;2022-10-13T00:25:10;15.80;;;5.88;;
54261;SDS011;40174;52.364;6.452;2022-10-13T00:27:38;18.23;;;6.88;;
54261;SDS011;40174;52.364;6.452;2022-10-13T00:30:05;15.93;;;6.90;;
54261;SDS011;40174;52.364;6.452;2022-10-13T00:32:32;18.65;;;5.82;;
54261;SDS011;40174;52.364;6.452;2022-10-13T00:34:58;15.00;;;6.57;;
54261;SDS011;40174;52.364;6.452;2022-10-13T00:37:25;21.38;;;7.03;;
54261;SDS011;40174;52.364;6.452;2022-10-13T00:39:52;18.65;;;7.15;;
54261;SDS011;40174;52.364;6.452;2022-10-13T00:42:22;26.65;;;7.60;;
54261;SDS011;40174;52.364;6.452;2022-10-13T00:44:58;13.27;;;5.60;;
54261;SDS011;40174;52.364;6.452;2022-10-13T00:47:30;18.50;;;6.60;;
54261;SDS011;40174;52.364;6.452;2022-10-13T00:50:00;19.92;;;6.78;;
54261;SDS011;40174;52.364;6.452;2022-10-13T00:52:26;15.77;;;6.80;;
54261;SDS011;40174;52.364;6.452;2022-10-13T00:54:55;17.05;;;6.57;;
54261;SDS011;40174;52.364;6.452;2022-10-13T00:57:23;17.77;;;6.70;;
54261;SDS011;40174;52.364;6.452;2022-10-13T00:59:50;16.67;;;6.75;;
54261;SDS011;40174;52.364;6.452;2022-10-13T01:02:18;18.90;;;7.07;;
54261;SDS011;40174;52.364;6.452;2022-10-13T01:04:48;19.27;;;6.90;;
54261;SDS011;40174;52.364;6.452;2022-10-13T01:07:16;15.27;;;6.82;;
54261;SDS011;40174;52.364;6.452;2022-10-13T01:09:44;19.35;;;6.47;;
54261;SDS011;40174;52.364;6.452;2022-10-13T01:12:14;14.05;;;6.28;;
54261;SDS011;40174;52.364;6.452;2022-10-13T01:14:54;15.82;;;6.05;;
54261;SDS011;40174;52.364;6.452;2022-10-13T01:17:31;17.92;;;6.25;;
54261;SDS011;40174;52.364;6.452;2022-10-13T01:20:08;17.65;;;6.53;;
54261;SDS011;40174;52.364;6.452;2022-10-13T01:23:06;18.63;;;7.55;;
54261;SDS011;40174;52.364;6.452;2022-10-13T01:25:49;16.80;;;6.40;;
54261;SDS011;40174;52.364;6.452;2022-10-13T01:28:32;20.23;;;7.40;;
54261;SDS011;40174;52.364;6.452;2022-10-13T01:31:18;20.60;;;6.75;;
54261;SDS011;40174;52.364;6.452;2022-10-13T01:33:49;22.15;;;7.25;;
54261;SDS011;40174;52.364;6.452;2022-10-13T01:36:29;18.27;;;7.03;;
54261;SDS011;40174;52.364;6.452;2022-10-13T01:39:02;22.25;;;7.03;;
54261;SDS011;40174;52.364;6.452;2022-10-13T01:41:39;16.90;;;7.82;;
54261;SDS011;40174;52.364;6.452;2022-10-13T01:44:12;14.88;;;6.80;;
54261;SDS011;40174;52.364;6.452;2022-10-13T01:46:52;21.17;;;6.68;;
54261;SDS011;40174;52.364;6.452;2022-10-13T01:49:21;16.77;;;6.15;;
54261;SDS011;40174;52.364;6.452;2022-10-13T01:51:52;20.58;;;6.43;;
54261;SDS011;40174;52.364;6.452;2022-10-13T01:54:21;21.63;;;6.68;;
54261;SDS011;40174;52.364;6.452;2022-10-13T01:56:51;16.25;;;6.00;;
54261;SDS011;40174;52.364;6.452;2022-10-13T01:59:18;17.73;;;7.50;;
54261;SDS011;40174;52.364;6.452;2022-10-13T02:01:53;17.55;;;7.70;;
54261;SDS011;40174;52.364;6.452;2022-10-13T02:04:30;21.15;;;6.20;;
54261;SDS011;40174;52.364;6.452;2022-10-13T02:09:45;15.15;;;5.80;;
54261;SDS011;40174;52.364;6.452;2022-10-13T02:12:18;15.20;;;7.07;;
54261;SDS011;40174;52.364;6.452;2022-10-13T02:14:50;20.10;;;6.57;;
54261;SDS011;40174;52.364;6.452;2022-10-13T02:17:22;18.95;;;6.78;;
54261;SDS011;40174;52.364;6.452;2022-10-13T02:19:51;16.85;;;7.10;;
54261;SDS011;40174;52.364;6.452;2022-10-13T02:22:19;16.27;;;6.38;;
54261;SDS011;40174;52.364;6.452;2022-10-13T02:24:50;18.33;;;6.32;;
54261;SDS011;40174;52.364;6.452;2022-10-13T02:27:18;14.98;;;6.70;;
54261;SDS011;40174;52.364;6.452;2022-10-13T02:29:48;20.88;;;6.05;;
54261;SDS011;40174;52.364;6.452;2022-10-13T02:32:17;23.27;;;6.80;;
54261;SDS011;40174;52.364;6.452;2022-10-13T02:34:45;15.40;;;6.53;;
54261;SDS011;40174;52.364;6.452;2022-10-13T02:37:12;16.58;;;5.90;;
54261;SDS011;40174;52.364;6.452;2022-10-13T02:39:38;17.85;;;6.20;;
54261;SDS011;40174;52.364;6.452;2022-10-13T02:42:09;19.33;;;6.50;;
54261;SDS011;40174;52.364;6.452;2022-10-13T02:44:36;14.88;;;6.40;;
54261;SDS011;40174;52.364;6.452;2022-10-13T02:47:04;20.17;;;8.00;;
54261;SDS011;40174;52.364;6.452;2022-10-13T02:49:30;16.88;;;7.38;;
54261;SDS011;40174;52.364;6.452;2022-10-13T02:51:58;16.70;;;5.93;;
54261;SDS011;40174;52.364;6.452;2022-10-13T02:54:25;16.20;;;6.15;;
54261;SDS011;40174;52.364;6.452;2022-10-13T02:56:52;19.23;;;6.72;;
54261;SDS011;40174;52.364;6.452;2022-10-13T02:59:18;19.95;;;6.97;;
54261;SDS011;40174;52.364;6.452;2022-10-13T03:01:45;20.27;;;6.60;;
54261;SDS011;40174;52.364;6.452;2022-10-13T03:04:11;20.05;;;6.22;;
54261;SDS011;40174;52.364;6.452;2022-10-13T03:06:38;17.02;;;6.82;;
54261;SDS011;40174;52.364;6.452;2022-10-13T03:09:07;18.38;;;6.05;;
54261;SDS011;40174;52.364;6.452;2022-10-13T03:11:34;18.25;;;7.10;;
54261;SDS011;40174;52.364;6.452;2022-10-13T03:14:00;19.45;;;6.85;;
54261;SDS011;40174;52.364;6.452;2022-10-13T03:16:27;15.82;;;6.47;;
54261;SDS011;40174;52.364;6.452;2022-10-13T03:18:53;19.70;;;6.95;;
54261;SDS011;40174;52.364;6.452;2022-10-13T03:21:20;17.33;;;6.75;;
54261;SDS011;40174;52.364;6.452;2022-10-13T03:23:46;19.35;;;7.55;;
54261;SDS011;40174;52.364;6.452;2022-10-13T03:26:14;18.08;;;6.53;;
54261;SDS011;40174;52.364;6.452;2022-10-13T03:28:41;17.63;;;7.32;;
54261;SDS011;40174;52.364;6.452;2022-10-13T03:31:09;21.67;;;7.10;;
54261;SDS011;40174;52.364;6.452;2022-10-13T03:33:37;14.20;;;6.25;;
54261;SDS011;40174;52.364;6.452;2022-10-13T03:36:05;20.25;;;7.60;;
54261;SDS011;40174;52.364;6.452;2022-10-13T03:38:33;18.23;;;6.88;;
54261;SDS011;40174;52.364;6.452;2022-10-13T03:41:03;24.50;;;7.15;;
54261;SDS011;40174;52.364;6.452;2022-10-13T03:43:31;19.92;;;7.28;;
54261;SDS011;40174;52.364;6.452;2022-10-13T03:45:59;21.77;;;7.13;;
54261;SDS011;40174;52.364;6.452;2022-10-13T03:48:26;18.45;;;7.50;;
54261;SDS011;40174;52.364;6.452;2022-10-13T03:50:54;18.00;;;6.55;;
54261;SDS011;40174;52.364;6.452;2022-10-13T03:53:20;16.90;;;6.70;;
54261;SDS011;40174;52.364;6.452;2022-10-13T03:55:48;17.23;;;7.47;;
54261;SDS011;40174;52.364;6.452;2022-10-13T03:58:15;21.40;;;8.18;;
54261;SDS011;40174;52.364;6.452;2022-10-13T04:00:45;20.75;;;7.07;;
54261;SDS011;40174;52.364;6.452;2022-10-13T04:03:13;17.50;;;7.53;;
54261;SDS011;40174;52.364;6.452;2022-10-13T04:05:39;17.20;;;7.63;;
54261;SDS011;40174;52.364;6.452;2022-10-13T04:08:06;20.42;;;7.63;;
54261;SDS011;40174;52.364;6.452;2022-10-13T04:10:33;20.75;;;6.63;;
54261;SDS011;40174;52.364;6.452;2022-10-13T04:13:00;17.75;;;6.60;;
54261;SDS011;40174;52.364;6.452;2022-10-13T04:15:26;22.33;;;7.75;;
54261;SDS011;40174;52.364;6.452;2022-10-13T04:17:54;21.20;;;7.30;;
54261;SDS011;40174;52.364;6.452;2022-10-13T04:20:21;20.05;;;7.38;;
54261;SDS011;40174;52.364;6.452;2022-10-13T04:22:47;19.27;;;7.90;;
54261;SDS011;40174;52.364;6.452;2022-10-13T04:25:14;23.52;;;7.95;;
54261;SDS011;40174;52.364;6.452;2022-10-13T04:27:40;17.63;;;6.95;;
54261;SDS011;40174;52.364;6.452;2022-10-13T04:30:07;16.30;;;6.78;;
54261;SDS011;40174;52.364;6.452;2022-10-13T04:32:35;16.90;;;7.72;;
54261;SDS011;40174;52.364;6.452;2022-10-13T04:35:03;20.17;;;7.85;;
54261;SDS011;40174;52.364;6.452;2022-10-13T04:37:30;19.65;;;7.07;;
54261;SDS011;40174;52.364;6.452;2022-10-13T04:39:57;18.60;;;6.90;;
54261;SDS011;40174;52.364;6.452;2022-10-13T04:42:23;20.38;;;7.63;;
54261;SDS011;40174;52.364;6.452;2022-10-13T04:44:50;20.30;;;7.53;;
54261;SDS011;40174;52.364;6.452;2022-10-13T04:47:19;17.45;;;7.20;;
54261;SDS011;40174;52.364;6.452;2022-10-13T04:49:46;18.27;;;8.07;;
54261;SDS011;40174;52.364;6.452;2022-10-13T04:52:14;19.00;;;7.20;;
54261;SDS011;40174;52.364;6.452;2022-10-13T04:54:41;21.17;;;7.20;;
54261;SDS011;40174;52.364;6.452;2022-10-13T04:57:08;14.93;;;7.32;;
54261;SDS011;40174;52.364;6.452;2022-10-13T04:59:35;16.00;;;7.43;;
54261;SDS011;40174;52.364;6.452;2022-10-13T05:02:01;17.85;;;7.32;;
54261;SDS011;40174;52.364;6.452;2022-10-13T05:04:28;19.75;;;7.65;;
54261;SDS011;40174;52.364;6.452;2022-10-13T05:06:54;18.58;;;7.25;;
54261;SDS011;40174;52.364;6.452;2022-10-13T05:09:22;20.05;;;7.20;;
54261;SDS011;40174;52.364;6.452;2022-10-13T05:11:49;20.13;;;8.45;;
54261;SDS011;40174;52.364;6.452;2022-10-13T05:14:15;24.25;;;7.80;;
54261;SDS011;40174;52.364;6.452;2022-10-13T05:16:42;19.10;;;7.65;;
54261;SDS011;40174;52.364;6.452;2022-10-13T05:19:11;16.92;;;7.80;;
54261;SDS011;40174;52.364;6.452;2022-10-13T05:21:38;21.30;;;7.40;;
54261;SDS011;40174;52.364;6.452;2022-10-13T05:24:05;20.52;;;8.40;;
54261;SDS011;40174;52.364;6.452;2022-10-13T05:26:40;25.95;;;7.95;;
54261;SDS011;40174;52.364;6.452;2022-10-13T05:29:07;17.27;;;6.80;;
54261;SDS011;40174;52.364;6.452;2022-10-13T05:31:34;16.35;;;6.45;;
54261;SDS011;40174;52.364;6.452;2022-10-13T05:34:01;21.80;;;7.00;;
54261;SDS011;40174;52.364;6.452;2022-10-13T05:36:28;18.20;;;7.35;;
54261;SDS011;40174;52.364;6.452;2022-10-13T05:38:57;18.75;;;7.07;;
54261;SDS011;40174;52.364;6.452;2022-10-13T05:41:25;21.63;;;7.68;;
54261;SDS011;40174;52.364;6.452;2022-10-13T05:43:54;23.83;;;7.85;;
54261;SDS011;40174;52.364;6.452;2022-10-13T05:46:23;23.83;;;8.23;;
54261;SDS011;40174;52.364;6.452;2022-10-13T05:48:50;23.83;;;7.72;;
54261;SDS011;40174;52.364;6.452;2022-10-13T05:51:19;20.08;;;7.60;;
54261;SDS011;40174;52.364;6.452;2022-10-13T05:53:51;18.45;;;6.82;;
54261;SDS011;40174;52.364;6.452;2022-10-13T05:56:20;18.90;;;8.15;;
54261;SDS011;40174;52.364;6.452;2022-10-13T05:58:49;20.20;;;7.43;;
54261;SDS011;40174;52.364;6.452;2022-10-13T06:01:20;16.88;;;7.43;;
54261;SDS011;40174;52.364;6.452;2022-10-13T06:03:50;23.98;;;8.15;;
54261;SDS011;40174;52.364;6.452;2022-10-13T06:06:23;25.65;;;8.45;;
54261;SDS011;40174;52.364;6.452;2022-10-13T06:08:50;18.83;;;7.78;;
54261;SDS011;40174;52.364;6.452;2022-10-13T06:11:17;20.75;;;8.38;;
54261;SDS011;40174;52.364;6.452;2022-10-13T06:13:44;18.35;;;7.93;;
54261;SDS011;40174;52.364;6.452;2022-10-13T06:16:10;21.13;;;8.35;;
54261;SDS011;40174;52.364;6.452;2022-10-13T06:18:38;16.52;;;7.65;;
54261;SDS011;40174;52.364;6.452;2022-10-13T06:21:05;19.88;;;8.15;;
54261;SDS011;40174;52.364;6.452;2022-10-13T06:23:31;19.48;;;8.27;;
54261;SDS011;40174;52.364;6.452;2022-10-13T06:25:58;22.30;;;9.50;;
54261;SDS011;40174;52.364;6.452;2022-10-13T06:28:25;27.63;;;9.73;;
54261;SDS011;40174;52.364;6.452;2022-10-13T06:30:52;22.80;;;8.65;;
54261;SDS011;40174;52.364;6.452;2022-10-13T06:33:21;19.17;;;8.68;;
54261;SDS011;40174;52.364;6.452;2022-10-13T06:35:49;23.35;;;8.45;;
54261;SDS011;40174;52.364;6.452;2022-10-13T06:38:16;22.08;;;8.30;;
54261;SDS011;40174;52.364;6.452;2022-10-13T06:40:46;19.00;;;7.72;;
54261;SDS011;40174;52.364;6.452;2022-10-13T06:43:12;22.92;;;7.90;;
54261;SDS011;40174;52.364;6.452;2022-10-13T06:45:40;22.42;;;7.70;;
54261;SDS011;40174;52.364;6.452;2022-10-13T06:48:07;23.10;;;7.50;;
54261;SDS011;40174;52.364;6.452;2022-10-13T06:50:33;18.20;;;7.90;;
54261;SDS011;40174;52.364;6.452;2022-10-13T06:53:01;19.42;;;8.25;;
54261;SDS011;40174;52.364;6.452;2022-10-13T06:55:28;22.20;;;8.27;;
54261;SDS011;40174;52.364;6.452;2022-10-13T06:57:54;21.35;;;8.38;;
54261;SDS011;40174;52.364;6.452;2022-10-13T07:00:21;21.48;;;8.68;;
54261;SDS011;40174;52.364;6.452;2022-10-13T07:02:48;17.40;;;7.35;;
54261;SDS011;40174;52.364;6.452;2022-10-13T07:05:16;19.38;;;8.02;;
54261;SDS011;40174;52.364;6.452;2022-10-13T07:07:43;19.10;;;8.50;;
54261;SDS011;40174;52.364;6.452;2022-10-13T07:10:11;25.23;;;7.93;;
54261;SDS011;40174;52.364;6.452;2022-10-13T07:12:38;16.73;;;7.95;;
54261;SDS011;40174;52.364;6.452;2022-10-13T07:15:05;17.73;;;8.13;;
54261;SDS011;40174;52.364;6.452;2022-10-13T07:17:32;23.33;;;8.80;;
54261;SDS011;40174;52.364;6.452;2022-10-13T07:19:59;22.77;;;8.05;;
54261;SDS011;40174;52.364;6.452;2022-10-13T07:22:26;16.65;;;7.57;;
54261;SDS011;40174;52.364;6.452;2022-10-13T07:24:53;17.20;;;7.28;;
54261;SDS011;40174;52.364;6.452;2022-10-13T07:27:21;23.25;;;8.98;;
54261;SDS011;40174;52.364;6.452;2022-10-13T07:29:48;21.95;;;8.60;;
54261;SDS011;40174;52.364;6.452;2022-10-13T07:32:15;20.52;;;7.63;;
54261;SDS011;40174;52.364;6.452;2022-10-13T07:34:42;20.75;;;8.63;;
54261;SDS011;40174;52.364;6.452;2022-10-13T07:37:08;21.73;;;8.00;;
54261;SDS011;40174;52.364;6.452;2022-10-13T07:39:36;20.85;;;7.93;;
54261;SDS011;40174;52.364;6.452;2022-10-13T07:42:03;20.15;;;8.55;;
54261;SDS011;40174;52.364;6.452;2022-10-13T07:44:31;22.65;;;7.55;;
54261;SDS011;40174;52.364;6.452;2022-10-13T07:46:57;19.92;;;7.63;;
54261;SDS011;40174;52.364;6.452;2022-10-13T07:49:24;21.60;;;7.72;;
54261;SDS011;40174;52.364;6.452;2022-10-13T07:51:50;23.40;;;9.43;;
54261;SDS011;40174;52.364;6.452;2022-10-13T07:54:17;16.65;;;7.40;;
54261;SDS011;40174;52.364;6.452;2022-10-13T07:56:44;22.05;;;8.07;;
54261;SDS011;40174;52.364;6.452;2022-10-13T07:59:10;20.30;;;8.18;;
54261;SDS011;40174;52.364;6.452;2022-10-13T08:01:38;17.90;;;7.38;;
54261;SDS011;40174;52.364;6.452;2022-10-13T08:04:06;19.23;;;7.05;;
54261;SDS011;40174;52.364;6.452;2022-10-13T08:06:32;18.45;;;7.93;;
54261;SDS011;40174;52.364;6.452;2022-10-13T08:09:00;20.10;;;7.68;;
54261;SDS011;40174;52.364;6.452;2022-10-13T08:11:28;20.88;;;7.95;;
54261;SDS011;40174;52.364;6.452;2022-10-13T08:13:56;19.77;;;6.88;;
54261;SDS011;40174;52.364;6.452;2022-10-13T08:16:25;19.95;;;7.25;;
54261;SDS011;40174;52.364;6.452;2022-10-13T08:18:53;21.60;;;8.25;;
54261;SDS011;40174;52.364;6.452;2022-10-13T08:21:21;21.00;;;7.75;;
54261;SDS011;40174;52.364;6.452;2022-10-13T08:23:47;19.38;;;8.00;;
54261;SDS011;40174;52.364;6.452;2022-10-13T08:26:15;19.40;;;8.57;;
54261;SDS011;40174;52.364;6.452;2022-10-13T08:28:47;19.00;;;7.55;;
54261;SDS011;40174;52.364;6.452;2022-10-13T08:31:13;19.17;;;7.18;;
54261;SDS011;40174;52.364;6.452;2022-10-13T08:33:40;20.05;;;7.60;;
54261;SDS011;40174;52.364;6.452;2022-10-13T08:36:09;21.20;;;8.40;;
54261;SDS011;40174;52.364;6.452;2022-10-13T08:38:36;18.48;;;8.63;;
54261;SDS011;40174;52.364;6.452;2022-10-13T08:41:02;21.15;;;8.68;;
54261;SDS011;40174;52.364;6.452;2022-10-13T08:43:40;16.90;;;7.63;;
54261;SDS011;40174;52.364;6.452;2022-10-13T08:46:09;23.15;;;7.97;;
54261;SDS011;40174;52.364;6.452;2022-10-13T08:48:38;17.33;;;7.57;;
54261;SDS011;40174;52.364;6.452;2022-10-13T08:51:07;19.15;;;7.28;;
54261;SDS011;40174;52.364;6.452;2022-10-13T08:53:41;17.35;;;7.47;;
54261;SDS011;40174;52.364;6.452;2022-10-13T08:56:13;21.55;;;7.47;;
54261;SDS011;40174;52.364;6.452;2022-10-13T08:58:45;25.27;;;7.88;;
54261;SDS011;40174;52.364;6.452;2022-10-13T09:01:13;19.65;;;7.30;;
54261;SDS011;40174;52.364;6.452;2022-10-13T09:03:47;20.85;;;7.95;;
54261;SDS011;40174;52.364;6.452;2022-10-13T09:06:19;20.48;;;7.85;;
54261;SDS011;40174;52.364;6.452;2022-10-13T09:08:53;17.15;;;7.28;;
54261;SDS011;40174;52.364;6.452;2022-10-13T09:11:25;21.40;;;8.38;;
54261;SDS011;40174;52.364;6.452;2022-10-13T09:13:54;18.52;;;7.60;;
54261;SDS011;40174;52.364;6.452;2022-10-13T09:16:31;18.65;;;8.15;;
54261;SDS011;40174;52.364;6.452;2022-10-13T09:19:12;19.02;;;8.18;;
54261;SDS011;40174;52.364;6.452;2022-10-13T09:21:45;18.85;;;7.53;;
54261;SDS011;40174;52.364;6.452;2022-10-13T09:24:13;18.17;;;8.43;;
54261;SDS011;40174;52.364;6.452;2022-10-13T09:26:41;20.75;;;7.50;;
54261;SDS011;40174;52.364;6.452;2022-10-13T09:29:09;18.20;;;8.35;;
54261;SDS011;40174;52.364;6.452;2022-10-13T09:31:40;25.25;;;8.38;;
54261;SDS011;40174;52.364;6.452;2022-10-13T09:34:12;20.65;;;7.32;;
54261;SDS011;40174;52.364;6.452;2022-10-13T09:39:30;19.48;;;7.75;;
54261;SDS011;40174;52.364;6.452;2022-10-13T09:44:44;19.48;;;8.05;;
54261;SDS011;40174;52.364;6.452;2022-10-13T09:47:16;18.10;;;7.90;;
54261;SDS011;40174;52.364;6.452;2022-10-13T09:49:45;20.48;;;9.05;;
54261;SDS011;40174;52.364;6.452;2022-10-13T09:52:24;20.77;;;8.93;;
54261;SDS011;40174;52.364;6.452;2022-10-13T09:54:51;24.13;;;10.23;;
54261;SDS011;40174;52.364;6.452;2022-10-13T09:57:20;23.67;;;9.55;;
54261;SDS011;40174;52.364;6.452;2022-10-13T09:59:57;22.25;;;8.65;;
54261;SDS011;40174;52.364;6.452;2022-10-13T10:02:37;23.30;;;9.10;;
54261;SDS011;40174;52.364;6.452;2022-10-13T10:05:13;17.95;;;8.52;;
54261;SDS011;40174;52.364;6.452;2022-10-13T10:07:47;19.77;;;9.15;;
54261;SDS011;40174;52.364;6.452;2022-10-13T10:10:15;24.15;;;8.63;;
54261;SDS011;40174;52.364;6.452;2022-10-13T10:12:54;21.65;;;9.55;;
54261;SDS011;40174;52.364;6.452;2022-10-13T10:15:22;22.40;;;8.13;;
54261;SDS011;40174;52.364;6.452;2022-10-13T10:17:54;21.67;;;9.07;;
54261;SDS011;40174;52.364;6.452;2022-10-13T10:20:31;23.38;;;8.70;;
54261;SDS011;40174;52.364;6.452;2022-10-13T10:23:10;22.15;;;9.00;;
54261;SDS011;40174;52.364;6.452;2022-10-13T10:25:40;25.42;;;9.35;;
54261;SDS011;40174;52.364;6.452;2022-10-13T10:28:37;23.65;;;8.35;;
54261;SDS011;40174;52.364;6.452;2022-10-13T10:31:12;20.80;;;9.38;;
54261;SDS011;40174;52.364;6.452;2022-10-13T10:33:48;21.40;;;9.20;;
54261;SDS011;40174;52.364;6.452;2022-10-13T10:36:26;24.63;;;8.38;;
54261;SDS011;40174;52.364;6.452;2022-10-13T10:39:02;21.27;;;8.65;;
54261;SDS011;40174;52.364;6.452;2022-10-13T10:41:39;22.02;;;8.32;;
54261;SDS011;40174;52.364;6.452;2022-10-13T10:44:13;20.58;;;9.13;;
54261;SDS011;40174;52.364;6.452;2022-10-13T10:46:43;18.85;;;9.27;;
54261;SDS011;40174;52.364;6.452;2022-10-13T10:49:13;19.08;;;8.30;;
54261;SDS011;40174;52.364;6.452;2022-10-13T10:51:43;19.40;;;8.70;;
54261;SDS011;40174;52.364;6.452;2022-10-13T10:54:20;23.02;;;8.25;;
54261;SDS011;40174;52.364;6.452;2022-10-13T10:56:52;20.38;;;8.50;;
54261;SDS011;40174;52.364;6.452;2022-10-13T10:59:24;19.40;;;7.85;;
54261;SDS011;40174;52.364;6.452;2022-10-13T11:01:59;20.92;;;8.68;;
54261;SDS011;40174;52.364;6.452;2022-10-13T11:04:38;22.23;;;7.80;;
54261;SDS011;40174;52.364;6.452;2022-10-13T11:07:10;18.88;;;8.07;;
54261;SDS011;40174;52.364;6.452;2022-10-13T11:15:50;20.40;;;8.15;;
54261;SDS011;40174;52.364;6.452;2022-10-13T11:24:43;20.75;;;7.53;;
54261;SDS011;40174;52.364;6.452;2022-10-13T11:27:22;19.70;;;7.78;;
54261;SDS011;40174;52.364;6.452;2022-10-13T11:29:52;17.75;;;8.10;;
54261;SDS011;40174;52.364;6.452;2022-10-13T11:35:20;18.95;;;7.00;;
54261;SDS011;40174;52.364;6.452;2022-10-13T11:37:55;15.93;;;7.47;;
54261;SDS011;40174;52.364;6.452;2022-10-13T11:40:42;19.77;;;7.53;;
54261;SDS011;40174;52.364;6.452;2022-10-13T11:43:29;18.50;;;7.90;;
54261;SDS011;40174;52.364;6.452;2022-10-13T11:46:17;16.38;;;6.53;;
54261;SDS011;40174;52.364;6.452;2022-10-13T11:49:03;17.08;;;6.32;;
54261;SDS011;40174;52.364;6.452;2022-10-13T11:51:54;18.52;;;7.25;;
54261;SDS011;40174;52.364;6.452;2022-10-13T11:54:32;18.92;;;6.82;;
54261;SDS011;40174;52.364;6.452;2022-10-13T11:57:15;19.50;;;7.65;;
54261;SDS011;40174;52.364;6.452;2022-10-13T11:59:45;22.27;;;7.00;;
54261;SDS011;40174;52.364;6.452;2022-10-13T12:02:14;19.05;;;6.55;;
54261;SDS011;40174;52.364;6.452;2022-10-13T12:04:43;14.93;;;7.43;;
54261;SDS011;40174;52.364;6.452;2022-10-13T12:07:11;14.15;;;6.70;;
54261;SDS011;40174;52.364;6.452;2022-10-13T12:09:47;17.05;;;6.78;;
54261;SDS011;40174;52.364;6.452;2022-10-13T12:12:17;18.25;;;6.43;;
54261;SDS011;40174;52.364;6.452;2022-10-13T12:14:48;17.58;;;6.85;;
54261;SDS011;40174;52.364;6.452;2022-10-13T12:17:18;17.75;;;6.38;;
54261;SDS011;40174;52.364;6.452;2022-10-13T12:19:47;13.88;;;6.43;;
54261;SDS011;40174;52.364;6.452;2022-10-13T12:22:14;20.10;;;7.28;;
54261;SDS011;40174;52.364;6.452;2022-10-13T12:24:41;18.65;;;6.70;;
54261;SDS011;40174;52.364;6.452;2022-10-13T12:27:14;14.07;;;6.40;;
54261;SDS011;40174;52.364;6.452;2022-10-13T12:29:46;16.95;;;6.57;;
54261;SDS011;40174;52.364;6.452;2022-10-13T12:32:17;18.10;;;6.82;;
54261;SDS011;40174;52.364;6.452;2022-10-13T12:34:46;13.45;;;5.82;;
54261;SDS011;40174;52.364;6.452;2022-10-13T12:37:13;15.80;;;6.05;;
54261;SDS011;40174;52.364;6.452;2022-10-13T12:39:50;15.80;;;6.32;;
54261;SDS011;40174;52.364;6.452;2022-10-13T12:42:17;15.48;;;6.22;;
54261;SDS011;40174;52.364;6.452;2022-10-13T12:44:44;17.73;;;6.70;;
54261;SDS011;40174;52.364;6.452;2022-10-13T12:50:20;16.98;;;6.60;;
54261;SDS011;40174;52.364;6.452;2022-10-13T12:53:02;17.65;;;6.97;;
54261;SDS011;40174;52.364;6.452;2022-10-13T12:55:45;20.98;;;7.40;;
54261;SDS011;40174;52.364;6.452;2022-10-13T12:58:16;18.45;;;7.43;;
54261;SDS011;40174;52.364;6.452;2022-10-13T13:00:53;18.05;;;7.53;;
54261;SDS011;40174;52.364;6.452;2022-10-13T13:03:25;17.42;;;7.68;;
54261;SDS011;40174;52.364;6.452;2022-10-13T13:06:07;17.73;;;7.00;;
54261;SDS011;40174;52.364;6.452;2022-10-13T13:08:36;19.02;;;7.65;;
54261;SDS011;40174;52.364;6.452;2022-10-13T13:11:03;16.27;;;6.40;;
54261;SDS011;40174;52.364;6.452;2022-10-13T13:13:32;18.38;;;7.25;;
54261;SDS011;40174;52.364;6.452;2022-10-13T13:16:11;17.67;;;7.05;;
54261;SDS011;40174;52.364;6.452;2022-10-13T13:18:40;14.35;;;6.53;;
54261;SDS011;40174;52.364;6.452;2022-10-13T13:21:08;14.57;;;6.40;;
54261;SDS011;40174;52.364;6.452;2022-10-13T13:23:40;19.98;;;7.47;;
54261;SDS011;40174;52.364;6.452;2022-10-13T13:26:10;18.40;;;7.13;;
54261;SDS011;40174;52.364;6.452;2022-10-13T13:28:38;16.25;;;7.47;;
54261;SDS011;40174;52.364;6.452;2022-10-13T13:31:09;18.15;;;6.65;;
54261;SDS011;40174;52.364;6.452;2022-10-13T13:33:36;16.90;;;7.47;;
54261;SDS011;40174;52.364;6.452;2022-10-13T13:36:04;18.95;;;7.45;;
54261;SDS011;40174;52.364;6.452;2022-10-13T13:38:43;17.30;;;7.43;;
54261;SDS011;40174;52.364;6.452;2022-10-13T13:41:10;17.05;;;7.65;;
54261;SDS011;40174;52.364;6.452;2022-10-13T13:43:37;19.27;;;7.60;;
54261;SDS011;40174;52.364;6.452;2022-10-13T13:46:04;18.85;;;7.75;;
54261;SDS011;40174;52.364;6.452;2022-10-13T13:48:32;20.17;;;7.10;;
54261;SDS011;40174;52.364;6.452;2022-10-13T13:51:00;19.38;;;8.55;;
54261;SDS011;40174;52.364;6.452;2022-10-13T13:53:28;18.38;;;7.47;;
54261;SDS011;40174;52.364;6.452;2022-10-13T13:55:55;16.15;;;6.80;;
54261;SDS011;40174;52.364;6.452;2022-10-13T13:58:21;19.67;;;7.80;;
54261;SDS011;40174;52.364;6.452;2022-10-13T14:00:50;18.40;;;6.97;;
54261;SDS011;40174;52.364;6.452;2022-10-13T14:03:17;19.05;;;8.65;;
54261;SDS011;40174;52.364;6.452;2022-10-13T14:05:43;22.40;;;8.45;;
54261;SDS011;40174;52.364;6.452;2022-10-13T14:08:12;16.45;;;7.65;;
54261;SDS011;40174;52.364;6.452;2022-10-13T14:10:40;16.98;;;7.25;;
54261;SDS011;40174;52.364;6.452;2022-10-13T14:13:06;18.08;;;8.20;;
54261;SDS011;40174;52.364;6.452;2022-10-13T14:15:33;20.20;;;8.00;;
54261;SDS011;40174;52.364;6.452;2022-10-13T14:18:00;20.85;;;7.70;;
54261;SDS011;40174;52.364;6.452;2022-10-13T14:20:26;16.67;;;7.57;;
54261;SDS011;40174;52.364;6.452;2022-10-13T14:22:53;19.10;;;7.97;;
54261;SDS011;40174;52.364;6.452;2022-10-13T14:25:19;18.60;;;8.18;;
54261;SDS011;40174;52.364;6.452;2022-10-13T14:27:47;20.45;;;8.38;;
54261;SDS011;40174;52.364;6.452;2022-10-13T14:30:14;19.33;;;8.80;;
54261;SDS011;40174;52.364;6.452;2022-10-13T14:32:41;17.80;;;8.20;;
54261;SDS011;40174;52.364;6.452;2022-10-13T14:35:08;20.05;;;7.60;;
54261;SDS011;40174;52.364;6.452;2022-10-13T14:37:34;18.92;;;7.93;;
54261;SDS011;40174;52.364;6.452;2022-10-13T14:40:01;19.77;;;7.60;;
54261;SDS011;40174;52.364;6.452;2022-10-13T14:42:28;19.65;;;8.52;;
54261;SDS011;40174;52.364;6.452;2022-10-13T14:44:56;15.65;;;7.63;;
54261;SDS011;40174;52.364;6.452;2022-10-13T14:47:22;19.08;;;7.60;;
54261;SDS011;40174;52.364;6.452;2022-10-13T14:49:49;19.08;;;7.53;;
54261;SDS011;40174;52.364;6.452;2022-10-13T14:52:15;18.85;;;6.85;;
54261;SDS011;40174;52.364;6.452;2022-10-13T14:54:42;20.55;;;7.55;;
54261;SDS011;40174;52.364;6.452;2022-10-13T14:57:09;17.20;;;7.65;;
54261;SDS011;40174;52.364;6.452;2022-10-13T14:59:39;18.70;;;8.23;;
54261;SDS011;40174;52.364;6.452;2022-10-13T15:02:07;19.75;;;7.95;;
54261;SDS011;40174;52.364;6.452;2022-10-13T15:04:34;19.70;;;8.45;;
54261;SDS011;40174;52.364;6.452;2022-10-13T15:07:00;15.40;;;7.55;;
54261;SDS011;40174;52.364;6.452;2022-10-13T15:09:28;19.27;;;8.23;;
54261;SDS011;40174;52.364;6.452;2022-10-13T15:11:55;17.50;;;7.72;;
54261;SDS011;40174;52.364;6.452;2022-10-13T15:14:22;16.95;;;7.97;;